Grafton, Virginia
Current Conditions -  °F | °C
As of 5:54 PM on Tuesday 21 Oct 2014 (Local Time) from KPHF Reporting Station
Broken Clouds Broken Clouds  
Wind Chill: 71°   Ceiling: 10000
Heat Index: 71°   Visibility: 10mi
Dew Point: 52°   Wind: 6mph
Humidity: 51%   Direction: 230°SW
Pressure: 29.81"   Gusts: NA
Location:  37.1781°N, 76.4669°W
Report Text: KPHF 212154Z 23005KT 10SM SCT075 BKN100 22/11 A2981 RMK AO2 SLP094 T02170111
Loading
Personal Weather Stations






























Interactive Weather Map
Tropical Storm Tracking
New forecast layout! Learn more

10-Day Weather Forecast

Advertisements
Track Severe Weather on mobile